sensor_id;sensor_type;location;lat;lon;timestamp;P1;durP1;ratioP1;P2;durP2;ratioP2
58468;SDS011;44257;44.804;10.220;2023-06-22T00:02:14;8.82;;;5.32;;
58468;SDS011;44257;44.804;10.220;2023-06-22T00:04:39;9.68;;;6.57;;
58468;SDS011;44257;44.804;10.220;2023-06-22T00:07:05;8.30;;;5.90;;
58468;SDS011;44257;44.804;10.220;2023-06-22T00:09:31;10.18;;;6.07;;
58468;SDS011;44257;44.804;10.220;2023-06-22T00:11:58;8.73;;;5.38;;
58468;SDS011;44257;44.804;10.220;2023-06-22T00:14:24;9.77;;;5.57;;
58468;SDS011;44257;44.804;10.220;2023-06-22T00:16:50;10.90;;;5.55;;
58468;SDS011;44257;44.804;10.220;2023-06-22T00:19:20;12.60;;;5.75;;
58468;SDS011;44257;44.804;10.220;2023-06-22T00:21:47;8.63;;;5.65;;
58468;SDS011;44257;44.804;10.220;2023-06-22T00:24:18;10.80;;;5.75;;
58468;SDS011;44257;44.804;10.220;2023-06-22T00:26:45;7.38;;;5.25;;
58468;SDS011;44257;44.804;10.220;2023-06-22T00:29:12;6.93;;;4.88;;
58468;SDS011;44257;44.804;10.220;2023-06-22T00:31:37;8.98;;;5.43;;
58468;SDS011;44257;44.804;10.220;2023-06-22T00:34:03;10.15;;;5.40;;
58468;SDS011;44257;44.804;10.220;2023-06-22T00:36:33;8.52;;;5.15;;
58468;SDS011;44257;44.804;10.220;2023-06-22T00:39:00;8.63;;;5.47;;
58468;SDS011;44257;44.804;10.220;2023-06-22T00:41:27;10.68;;;5.40;;
58468;SDS011;44257;44.804;10.220;2023-06-22T00:43:54;9.27;;;5.10;;
58468;SDS011;44257;44.804;10.220;2023-06-22T00:46:20;8.02;;;4.93;;
58468;SDS011;44257;44.804;10.220;2023-06-22T00:48:48;9.18;;;5.95;;
58468;SDS011;44257;44.804;10.220;2023-06-22T00:51:15;11.00;;;5.60;;
58468;SDS011;44257;44.804;10.220;2023-06-22T00:53:41;11.38;;;5.40;;
58468;SDS011;44257;44.804;10.220;2023-06-22T00:56:09;12.27;;;5.50;;
58468;SDS011;44257;44.804;10.220;2023-06-22T00:58:38;8.73;;;5.72;;
58468;SDS011;44257;44.804;10.220;2023-06-22T01:01:06;13.43;;;5.63;;
58468;SDS011;44257;44.804;10.220;2023-06-22T01:03:33;9.57;;;4.93;;
58468;SDS011;44257;44.804;10.220;2023-06-22T01:06:02;9.98;;;5.13;;
58468;SDS011;44257;44.804;10.220;2023-06-22T01:11:52;9.48;;;5.80;;
58468;SDS011;44257;44.804;10.220;2023-06-22T01:14:27;13.07;;;5.32;;
58468;SDS011;44257;44.804;10.220;2023-06-22T01:17:03;8.52;;;5.35;;
58468;SDS011;44257;44.804;10.220;2023-06-22T01:19:45;9.10;;;4.93;;
58468;SDS011;44257;44.804;10.220;2023-06-22T01:22:20;9.48;;;5.57;;
58468;SDS011;44257;44.804;10.220;2023-06-22T01:30:26;9.55;;;5.05;;
58468;SDS011;44257;44.804;10.220;2023-06-22T01:32:58;8.18;;;5.13;;
58468;SDS011;44257;44.804;10.220;2023-06-22T01:35:24;8.25;;;4.93;;
58468;SDS011;44257;44.804;10.220;2023-06-22T01:37:51;11.25;;;5.53;;
58468;SDS011;44257;44.804;10.220;2023-06-22T01:40:18;9.55;;;4.95;;
58468;SDS011;44257;44.804;10.220;2023-06-22T01:42:44;9.63;;;6.32;;
58468;SDS011;44257;44.804;10.220;2023-06-22T01:45:11;11.93;;;5.32;;
58468;SDS011;44257;44.804;10.220;2023-06-22T01:47:38;9.93;;;5.20;;
58468;SDS011;44257;44.804;10.220;2023-06-22T01:50:04;10.57;;;5.18;;
58468;SDS011;44257;44.804;10.220;2023-06-22T01:52:32;8.48;;;5.20;;
58468;SDS011;44257;44.804;10.220;2023-06-22T01:54:59;9.30;;;5.43;;
58468;SDS011;44257;44.804;10.220;2023-06-22T01:57:26;7.05;;;5.05;;
58468;SDS011;44257;44.804;10.220;2023-06-22T01:59:55;9.63;;;4.85;;
58468;SDS011;44257;44.804;10.220;2023-06-22T02:02:32;8.45;;;4.97;;
58468;SDS011;44257;44.804;10.220;2023-06-22T02:05:26;11.13;;;5.07;;
58468;SDS011;44257;44.804;10.220;2023-06-22T02:10:29;7.72;;;5.22;;
58468;SDS011;44257;44.804;10.220;2023-06-22T02:12:57;9.48;;;5.13;;
58468;SDS011;44257;44.804;10.220;2023-06-22T02:15:25;11.15;;;5.43;;
58468;SDS011;44257;44.804;10.220;2023-06-22T02:17:53;9.13;;;5.38;;
58468;SDS011;44257;44.804;10.220;2023-06-22T02:20:20;10.07;;;5.75;;
58468;SDS011;44257;44.804;10.220;2023-06-22T02:22:48;9.13;;;5.50;;
58468;SDS011;44257;44.804;10.220;2023-06-22T02:25:14;11.55;;;5.50;;
58468;SDS011;44257;44.804;10.220;2023-06-22T02:27:40;8.73;;;5.78;;
58468;SDS011;44257;44.804;10.220;2023-06-22T02:30:09;10.23;;;5.45;;
58468;SDS011;44257;44.804;10.220;2023-06-22T02:32:37;10.75;;;6.05;;
58468;SDS011;44257;44.804;10.220;2023-06-22T02:35:11;10.60;;;5.40;;
58468;SDS011;44257;44.804;10.220;2023-06-22T02:37:37;9.95;;;6.25;;
58468;SDS011;44257;44.804;10.220;2023-06-22T02:40:04;11.40;;;6.50;;
58468;SDS011;44257;44.804;10.220;2023-06-22T02:42:33;10.27;;;6.10;;
58468;SDS011;44257;44.804;10.220;2023-06-22T02:44:59;12.98;;;6.38;;
58468;SDS011;44257;44.804;10.220;2023-06-22T02:47:25;13.40;;;6.32;;
58468;SDS011;44257;44.804;10.220;2023-06-22T02:49:51;9.57;;;6.63;;
58468;SDS011;44257;44.804;10.220;2023-06-22T02:52:17;8.20;;;6.07;;
58468;SDS011;44257;44.804;10.220;2023-06-22T02:54:43;11.00;;;6.10;;
58468;SDS011;44257;44.804;10.220;2023-06-22T02:57:12;11.15;;;6.95;;
58468;SDS011;44257;44.804;10.220;2023-06-22T02:59:40;10.07;;;6.72;;
58468;SDS011;44257;44.804;10.220;2023-06-22T03:02:08;9.27;;;6.55;;
58468;SDS011;44257;44.804;10.220;2023-06-22T03:04:35;9.55;;;6.10;;
58468;SDS011;44257;44.804;10.220;2023-06-22T03:07:01;9.13;;;6.82;;
58468;SDS011;44257;44.804;10.220;2023-06-22T03:09:29;10.98;;;6.60;;
58468;SDS011;44257;44.804;10.220;2023-06-22T03:11:56;10.82;;;6.45;;
58468;SDS011;44257;44.804;10.220;2023-06-22T03:14:25;8.95;;;5.72;;
58468;SDS011;44257;44.804;10.220;2023-06-22T03:16:52;9.52;;;6.35;;
58468;SDS011;44257;44.804;10.220;2023-06-22T03:19:18;9.82;;;7.00;;
58468;SDS011;44257;44.804;10.220;2023-06-22T03:21:47;10.35;;;7.00;;
58468;SDS011;44257;44.804;10.220;2023-06-22T03:24:13;12.10;;;6.97;;
58468;SDS011;44257;44.804;10.220;2023-06-22T03:26:39;13.95;;;7.32;;
58468;SDS011;44257;44.804;10.220;2023-06-22T03:29:04;11.82;;;6.90;;
58468;SDS011;44257;44.804;10.220;2023-06-22T03:31:33;9.82;;;6.45;;
58468;SDS011;44257;44.804;10.220;2023-06-22T03:33:59;10.52;;;6.53;;
58468;SDS011;44257;44.804;10.220;2023-06-22T03:36:25;8.23;;;6.07;;
58468;SDS011;44257;44.804;10.220;2023-06-22T03:38:51;10.15;;;6.28;;
58468;SDS011;44257;44.804;10.220;2023-06-22T03:41:17;9.50;;;6.65;;
58468;SDS011;44257;44.804;10.220;2023-06-22T03:43:43;9.02;;;6.13;;
58468;SDS011;44257;44.804;10.220;2023-06-22T03:46:09;8.45;;;6.10;;
58468;SDS011;44257;44.804;10.220;2023-06-22T03:48:35;8.90;;;6.72;;
58468;SDS011;44257;44.804;10.220;2023-06-22T03:51:01;9.38;;;5.90;;
58468;SDS011;44257;44.804;10.220;2023-06-22T03:53:28;10.52;;;6.20;;
58468;SDS011;44257;44.804;10.220;2023-06-22T03:55:55;11.63;;;5.60;;
58468;SDS011;44257;44.804;10.220;2023-06-22T03:58:21;9.80;;;6.35;;
58468;SDS011;44257;44.804;10.220;2023-06-22T04:00:47;11.65;;;6.20;;
58468;SDS011;44257;44.804;10.220;2023-06-22T04:03:14;9.38;;;6.03;;
58468;SDS011;44257;44.804;10.220;2023-06-22T04:05:41;6.65;;;5.68;;
58468;SDS011;44257;44.804;10.220;2023-06-22T04:08:07;9.95;;;6.25;;
58468;SDS011;44257;44.804;10.220;2023-06-22T04:10:33;8.13;;;6.00;;
58468;SDS011;44257;44.804;10.220;2023-06-22T04:12:59;10.52;;;6.72;;
58468;SDS011;44257;44.804;10.220;2023-06-22T04:15:25;9.65;;;6.40;;
58468;SDS011;44257;44.804;10.220;2023-06-22T04:17:51;10.23;;;7.20;;
58468;SDS011;44257;44.804;10.220;2023-06-22T04:20:18;9.55;;;6.95;;
58468;SDS011;44257;44.804;10.220;2023-06-22T04:22:44;10.45;;;7.88;;
58468;SDS011;44257;44.804;10.220;2023-06-22T04:25:11;13.90;;;7.40;;
58468;SDS011;44257;44.804;10.220;2023-06-22T04:27:37;10.80;;;7.00;;
58468;SDS011;44257;44.804;10.220;2023-06-22T04:30:07;11.40;;;6.82;;
58468;SDS011;44257;44.804;10.220;2023-06-22T04:32:34;11.60;;;7.40;;
58468;SDS011;44257;44.804;10.220;2023-06-22T04:35:01;11.18;;;6.78;;
58468;SDS011;44257;44.804;10.220;2023-06-22T04:37:30;9.82;;;6.93;;
58468;SDS011;44257;44.804;10.220;2023-06-22T04:39:56;8.10;;;5.50;;
58468;SDS011;44257;44.804;10.220;2023-06-22T04:42:22;12.68;;;6.53;;
58468;SDS011;44257;44.804;10.220;2023-06-22T04:44:48;9.20;;;6.03;;
58468;SDS011;44257;44.804;10.220;2023-06-22T04:47:13;8.98;;;5.60;;
58468;SDS011;44257;44.804;10.220;2023-06-22T04:49:39;11.02;;;6.68;;
58468;SDS011;44257;44.804;10.220;2023-06-22T04:52:09;13.18;;;5.38;;
58468;SDS011;44257;44.804;10.220;2023-06-22T04:54:37;10.40;;;5.80;;
58468;SDS011;44257;44.804;10.220;2023-06-22T04:57:05;9.43;;;5.53;;
58468;SDS011;44257;44.804;10.220;2023-06-22T04:59:35;11.32;;;5.50;;
58468;SDS011;44257;44.804;10.220;2023-06-22T05:02:04;10.90;;;5.70;;
58468;SDS011;44257;44.804;10.220;2023-06-22T05:04:31;10.75;;;5.90;;
58468;SDS011;44257;44.804;10.220;2023-06-22T05:06:57;19.23;;;6.30;;
58468;SDS011;44257;44.804;10.220;2023-06-22T05:09:25;15.35;;;5.90;;
58468;SDS011;44257;44.804;10.220;2023-06-22T05:11:51;13.80;;;5.75;;
58468;SDS011;44257;44.804;10.220;2023-06-22T05:14:17;11.15;;;5.82;;
58468;SDS011;44257;44.804;10.220;2023-06-22T05:16:44;12.43;;;6.05;;
58468;SDS011;44257;44.804;10.220;2023-06-22T05:19:10;12.77;;;5.72;;
58468;SDS011;44257;44.804;10.220;2023-06-22T05:21:37;14.07;;;5.97;;
58468;SDS011;44257;44.804;10.220;2023-06-22T05:24:03;15.68;;;5.82;;
58468;SDS011;44257;44.804;10.220;2023-06-22T05:26:30;8.02;;;5.93;;
58468;SDS011;44257;44.804;10.220;2023-06-22T05:28:57;7.63;;;5.65;;
58468;SDS011;44257;44.804;10.220;2023-06-22T05:31:26;13.27;;;6.38;;
58468;SDS011;44257;44.804;10.220;2023-06-22T05:33:53;8.23;;;5.38;;
58468;SDS011;44257;44.804;10.220;2023-06-22T05:36:19;11.18;;;5.70;;
58468;SDS011;44257;44.804;10.220;2023-06-22T05:38:46;8.35;;;5.32;;
58468;SDS011;44257;44.804;10.220;2023-06-22T05:41:12;9.18;;;5.70;;
58468;SDS011;44257;44.804;10.220;2023-06-22T05:43:39;9.38;;;5.30;;
58468;SDS011;44257;44.804;10.220;2023-06-22T05:46:05;14.25;;;5.82;;
58468;SDS011;44257;44.804;10.220;2023-06-22T05:48:31;18.58;;;6.20;;
58468;SDS011;44257;44.804;10.220;2023-06-22T05:50:57;16.90;;;6.63;;
58468;SDS011;44257;44.804;10.220;2023-06-22T05:53:23;20.17;;;6.40;;
58468;SDS011;44257;44.804;10.220;2023-06-22T05:55:49;9.88;;;5.57;;
58468;SDS011;44257;44.804;10.220;2023-06-22T05:58:15;8.27;;;5.38;;
58468;SDS011;44257;44.804;10.220;2023-06-22T06:00:40;18.65;;;7.10;;
58468;SDS011;44257;44.804;10.220;2023-06-22T06:03:07;20.08;;;6.18;;
58468;SDS011;44257;44.804;10.220;2023-06-22T06:05:33;13.55;;;5.97;;
58468;SDS011;44257;44.804;10.220;2023-06-22T06:08:00;14.30;;;5.72;;
58468;SDS011;44257;44.804;10.220;2023-06-22T06:10:27;26.08;;;6.95;;
58468;SDS011;44257;44.804;10.220;2023-06-22T06:12:54;21.17;;;5.90;;
58468;SDS011;44257;44.804;10.220;2023-06-22T06:15:20;11.07;;;5.20;;
58468;SDS011;44257;44.804;10.220;2023-06-22T06:17:47;10.32;;;4.53;;
58468;SDS011;44257;44.804;10.220;2023-06-22T06:20:15;7.43;;;5.00;;
58468;SDS011;44257;44.804;10.220;2023-06-22T06:22:43;7.93;;;4.97;;
58468;SDS011;44257;44.804;10.220;2023-06-22T06:25:09;9.50;;;4.78;;
58468;SDS011;44257;44.804;10.220;2023-06-22T06:27:34;9.02;;;4.72;;
58468;SDS011;44257;44.804;10.220;2023-06-22T06:30:00;13.32;;;4.80;;
58468;SDS011;44257;44.804;10.220;2023-06-22T06:32:27;9.63;;;4.78;;
58468;SDS011;44257;44.804;10.220;2023-06-22T06:34:52;13.27;;;5.95;;
58468;SDS011;44257;44.804;10.220;2023-06-22T06:37:18;19.05;;;5.75;;
58468;SDS011;44257;44.804;10.220;2023-06-22T06:39:44;9.70;;;4.78;;
58468;SDS011;44257;44.804;10.220;2023-06-22T06:42:10;8.88;;;4.60;;
58468;SDS011;44257;44.804;10.220;2023-06-22T06:44:36;9.02;;;5.18;;
58468;SDS011;44257;44.804;10.220;2023-06-22T06:47:03;11.38;;;5.13;;
58468;SDS011;44257;44.804;10.220;2023-06-22T06:49:29;13.85;;;5.78;;
58468;SDS011;44257;44.804;10.220;2023-06-22T06:51:55;11.23;;;5.28;;
58468;SDS011;44257;44.804;10.220;2023-06-22T06:54:21;7.70;;;4.97;;
58468;SDS011;44257;44.804;10.220;2023-06-22T06:56:47;26.45;;;6.25;;
58468;SDS011;44257;44.804;10.220;2023-06-22T06:59:14;14.65;;;5.70;;
58468;SDS011;44257;44.804;10.220;2023-06-22T07:01:41;15.43;;;5.78;;
58468;SDS011;44257;44.804;10.220;2023-06-22T07:04:07;8.38;;;5.13;;
58468;SDS011;44257;44.804;10.220;2023-06-22T07:06:33;15.57;;;4.90;;
58468;SDS011;44257;44.804;10.220;2023-06-22T07:08:59;10.00;;;5.47;;
58468;SDS011;44257;44.804;10.220;2023-06-22T07:11:25;7.95;;;5.10;;
58468;SDS011;44257;44.804;10.220;2023-06-22T07:13:52;7.55;;;5.00;;
58468;SDS011;44257;44.804;10.220;2023-06-22T07:16:18;8.90;;;5.05;;
58468;SDS011;44257;44.804;10.220;2023-06-22T07:18:44;6.60;;;5.15;;
58468;SDS011;44257;44.804;10.220;2023-06-22T07:21:09;9.07;;;5.45;;
58468;SDS011;44257;44.804;10.220;2023-06-22T07:23:35;8.05;;;4.90;;
58468;SDS011;44257;44.804;10.220;2023-06-22T07:26:01;6.18;;;4.78;;
58468;SDS011;44257;44.804;10.220;2023-06-22T07:28:27;9.75;;;5.05;;
58468;SDS011;44257;44.804;10.220;2023-06-22T07:30:53;7.07;;;4.80;;
58468;SDS011;44257;44.804;10.220;2023-06-22T07:33:19;14.77;;;5.07;;
58468;SDS011;44257;44.804;10.220;2023-06-22T07:35:45;9.50;;;5.28;;
58468;SDS011;44257;44.804;10.220;2023-06-22T07:38:12;7.30;;;5.15;;
58468;SDS011;44257;44.804;10.220;2023-06-22T07:40:39;10.32;;;5.32;;
58468;SDS011;44257;44.804;10.220;2023-06-22T07:43:07;9.05;;;5.43;;
58468;SDS011;44257;44.804;10.220;2023-06-22T07:45:32;10.93;;;5.13;;
58468;SDS011;44257;44.804;10.220;2023-06-22T07:48:00;10.77;;;5.10;;
58468;SDS011;44257;44.804;10.220;2023-06-22T07:50:26;11.20;;;5.78;;
58468;SDS011;44257;44.804;10.220;2023-06-22T07:52:52;10.35;;;5.85;;
58468;SDS011;44257;44.804;10.220;2023-06-22T07:55:18;10.02;;;5.57;;
58468;SDS011;44257;44.804;10.220;2023-06-22T07:57:46;9.85;;;6.47;;
58468;SDS011;44257;44.804;10.220;2023-06-22T08:00:14;8.68;;;6.43;;
58468;SDS011;44257;44.804;10.220;2023-06-22T08:02:42;9.60;;;5.70;;
58468;SDS011;44257;44.804;10.220;2023-06-22T08:05:09;10.50;;;5.70;;
58468;SDS011;44257;44.804;10.220;2023-06-22T08:07:36;11.38;;;6.00;;
58468;SDS011;44257;44.804;10.220;2023-06-22T08:10:09;11.63;;;6.38;;
58468;SDS011;44257;44.804;10.220;2023-06-22T08:12:36;10.88;;;6.22;;
58468;SDS011;44257;44.804;10.220;2023-06-22T08:15:02;8.25;;;5.95;;
58468;SDS011;44257;44.804;10.220;2023-06-22T08:17:28;9.57;;;6.72;;
58468;SDS011;44257;44.804;10.220;2023-06-22T08:19:54;11.40;;;6.72;;
58468;SDS011;44257;44.804;10.220;2023-06-22T08:22:20;8.40;;;6.30;;
58468;SDS011;44257;44.804;10.220;2023-06-22T08:24:46;7.30;;;5.65;;
58468;SDS011;44257;44.804;10.220;2023-06-22T08:27:12;12.20;;;6.15;;
58468;SDS011;44257;44.804;10.220;2023-06-22T08:29:38;11.68;;;6.90;;
58468;SDS011;44257;44.804;10.220;2023-06-22T08:32:04;10.68;;;6.80;;
58468;SDS011;44257;44.804;10.220;2023-06-22T08:34:31;11.43;;;6.85;;
58468;SDS011;44257;44.804;10.220;2023-06-22T08:36:57;12.50;;;7.47;;
58468;SDS011;44257;44.804;10.220;2023-06-22T08:39:23;10.00;;;7.03;;
58468;SDS011;44257;44.804;10.220;2023-06-22T08:41:49;10.30;;;6.90;;
58468;SDS011;44257;44.804;10.220;2023-06-22T08:44:16;9.93;;;6.72;;
58468;SDS011;44257;44.804;10.220;2023-06-22T08:46:43;8.60;;;7.20;;
58468;SDS011;44257;44.804;10.220;2023-06-22T08:49:09;10.60;;;6.68;;
58468;SDS011;44257;44.804;10.220;2023-06-22T08:51:35;9.88;;;6.88;;
58468;SDS011;44257;44.804;10.220;2023-06-22T08:54:01;13.15;;;7.90;;
58468;SDS011;44257;44.804;10.220;2023-06-22T08:56:27;11.13;;;7.20;;
58468;SDS011;44257;44.804;10.220;2023-06-22T08:58:53;10.73;;;6.93;;
58468;SDS011;44257;44.804;10.220;2023-06-22T09:01:18;8.98;;;6.90;;
58468;SDS011;44257;44.804;10.220;2023-06-22T09:03:44;13.23;;;6.88;;
58468;SDS011;44257;44.804;10.220;2023-06-22T09:06:19;9.18;;;6.70;;
58468;SDS011;44257;44.804;10.220;2023-06-22T09:08:47;8.07;;;6.15;;
58468;SDS011;44257;44.804;10.220;2023-06-22T09:11:14;8.25;;;6.32;;
58468;SDS011;44257;44.804;10.220;2023-06-22T09:13:40;9.80;;;7.35;;
58468;SDS011;44257;44.804;10.220;2023-06-22T09:16:06;9.18;;;6.60;;
58468;SDS011;44257;44.804;10.220;2023-06-22T09:18:33;9.65;;;6.88;;
58468;SDS011;44257;44.804;10.220;2023-06-22T09:20:59;8.60;;;6.78;;
58468;SDS011;44257;44.804;10.220;2023-06-22T09:23:28;8.27;;;6.45;;
58468;SDS011;44257;44.804;10.220;2023-06-22T09:25:54;9.18;;;7.32;;
58468;SDS011;44257;44.804;10.220;2023-06-22T09:28:19;11.77;;;7.20;;
58468;SDS011;44257;44.804;10.220;2023-06-22T09:30:45;13.32;;;7.72;;
58468;SDS011;44257;44.804;10.220;2023-06-22T09:33:11;9.82;;;7.47;;
58468;SDS011;44257;44.804;10.220;2023-06-22T09:35:37;11.38;;;7.57;;
58468;SDS011;44257;44.804;10.220;2023-06-22T09:38:03;10.70;;;7.10;;
58468;SDS011;44257;44.804;10.220;2023-06-22T09:40:29;14.48;;;6.63;;
58468;SDS011;44257;44.804;10.220;2023-06-22T09:42:57;8.13;;;6.32;;
58468;SDS011;44257;44.804;10.220;2023-06-22T09:45:23;7.80;;;5.90;;
58468;SDS011;44257;44.804;10.220;2023-06-22T09:47:49;11.65;;;7.38;;
58468;SDS011;44257;44.804;10.220;2023-06-22T09:50:15;15.95;;;7.28;;
58468;SDS011;44257;44.804;10.220;2023-06-22T09:52:41;11.18;;;7.57;;
58468;SDS011;44257;44.804;10.220;2023-06-22T09:55:10;13.02;;;8.00;;
58468;SDS011;44257;44.804;10.220;2023-06-22T09:57:36;11.93;;;7.07;;
58468;SDS011;44257;44.804;10.220;2023-06-22T10:00:03;9.43;;;7.38;;
58468;SDS011;44257;44.804;10.220;2023-06-22T10:02:34;8.05;;;6.70;;
58468;SDS011;44257;44.804;10.220;2023-06-22T10:05:00;10.60;;;6.88;;
58468;SDS011;44257;44.804;10.220;2023-06-22T10:07:26;8.73;;;6.72;;
58468;SDS011;44257;44.804;10.220;2023-06-22T10:09:52;9.88;;;6.28;;
58468;SDS011;44257;44.804;10.220;2023-06-22T10:12:18;7.97;;;5.70;;
58468;SDS011;44257;44.804;10.220;2023-06-22T10:14:43;9.18;;;6.32;;
58468;SDS011;44257;44.804;10.220;2023-06-22T10:17:09;9.60;;;6.05;;
58468;SDS011;44257;44.804;10.220;2023-06-22T10:19:35;11.13;;;6.20;;
58468;SDS011;44257;44.804;10.220;2023-06-22T10:22:03;10.25;;;6.75;;
58468;SDS011;44257;44.804;10.220;2023-06-22T10:24:29;12.15;;;7.13;;
58468;SDS011;44257;44.804;10.220;2023-06-22T10:26:55;8.80;;;6.30;;
58468;SDS011;44257;44.804;10.220;2023-06-22T10:29:21;10.38;;;6.55;;
58468;SDS011;44257;44.804;10.220;2023-06-22T10:31:47;12.75;;;6.72;;
58468;SDS011;44257;44.804;10.220;2023-06-22T10:34:13;9.85;;;6.75;;
58468;SDS011;44257;44.804;10.220;2023-06-22T10:36:38;12.88;;;6.35;;
58468;SDS011;44257;44.804;10.220;2023-06-22T10:39:04;10.05;;;6.28;;
58468;SDS011;44257;44.804;10.220;2023-06-22T10:41:31;8.45;;;6.28;;
58468;SDS011;44257;44.804;10.220;2023-06-22T10:43:56;9.80;;;6.43;;
58468;SDS011;44257;44.804;10.220;2023-06-22T10:46:26;9.77;;;5.72;;
58468;SDS011;44257;44.804;10.220;2023-06-22T10:48:53;8.93;;;5.82;;
58468;SDS011;44257;44.804;10.220;2023-06-22T10:51:20;9.20;;;5.50;;
58468;SDS011;44257;44.804;10.220;2023-06-22T10:53:46;8.10;;;5.50;;
58468;SDS011;44257;44.804;10.220;2023-06-22T10:56:12;9.10;;;5.90;;
58468;SDS011;44257;44.804;10.220;2023-06-22T10:58:38;10.07;;;5.78;;
58468;SDS011;44257;44.804;10.220;2023-06-22T11:01:04;8.02;;;5.70;;
58468;SDS011;44257;44.804;10.220;2023-06-22T11:03:30;10.30;;;6.30;;
58468;SDS011;44257;44.804;10.220;2023-06-22T11:05:56;9.32;;;6.22;;
58468;SDS011;44257;44.804;10.220;2023-06-22T11:08:22;11.63;;;6.63;;
58468;SDS011;44257;44.804;10.220;2023-06-22T11:10:48;16.00;;;7.20;;
58468;SDS011;44257;44.804;10.220;2023-06-22T11:13:14;9.82;;;6.07;;
58468;SDS011;44257;44.804;10.220;2023-06-22T11:15:40;11.50;;;6.25;;
58468;SDS011;44257;44.804;10.220;2023-06-22T11:18:05;9.63;;;6.57;;
58468;SDS011;44257;44.804;10.220;2023-06-22T11:20:33;8.85;;;6.20;;
58468;SDS011;44257;44.804;10.220;2023-06-22T11:23:03;8.75;;;6.90;;
58468;SDS011;44257;44.804;10.220;2023-06-22T11:25:31;17.52;;;6.80;;
58468;SDS011;44257;44.804;10.220;2023-06-22T11:28:01;10.93;;;7.35;;
58468;SDS011;44257;44.804;10.220;2023-06-22T11:30:28;8.27;;;6.45;;
58468;SDS011;44257;44.804;10.220;2023-06-22T11:32:54;7.90;;;6.00;;
58468;SDS011;44257;44.804;10.220;2023-06-22T11:35:20;9.73;;;7.03;;
58468;SDS011;44257;44.804;10.220;2023-06-22T11:37:45;9.10;;;6.15;;
58468;SDS011;44257;44.804;10.220;2023-06-22T11:40:12;13.75;;;6.28;;
58468;SDS011;44257;44.804;10.220;2023-06-22T11:42:37;9.00;;;6.80;;
58468;SDS011;44257;44.804;10.220;2023-06-22T11:45:04;10.25;;;6.28;;
58468;SDS011;44257;44.804;10.220;2023-06-22T11:47:30;9.57;;;6.55;;
58468;SDS011;44257;44.804;10.220;2023-06-22T11:49:56;10.43;;;6.78;;
58468;SDS011;44257;44.804;10.220;2023-06-22T11:52:22;9.48;;;6.72;;
58468;SDS011;44257;44.804;10.220;2023-06-22T11:54:48;10.15;;;6.43;;
58468;SDS011;44257;44.804;10.220;2023-06-22T11:57:14;9.02;;;6.25;;
58468;SDS011;44257;44.804;10.220;2023-06-22T11:59:39;8.50;;;6.35;;
58468;SDS011;44257;44.804;10.220;2023-06-22T12:02:05;9.90;;;6.20;;
58468;SDS011;44257;44.804;10.220;2023-06-22T12:04:32;9.48;;;6.47;;
58468;SDS011;44257;44.804;10.220;2023-06-22T12:06:58;9.38;;;6.95;;
58468;SDS011;44257;44.804;10.220;2023-06-22T12:09:24;7.78;;;6.60;;
58468;SDS011;44257;44.804;10.220;2023-06-22T12:11:50;9.75;;;6.72;;
58468;SDS011;44257;44.804;10.220;2023-06-22T12:14:15;20.70;;;8.02;;
58468;SDS011;44257;44.804;10.220;2023-06-22T12:16:41;11.02;;;7.47;;
58468;SDS011;44257;44.804;10.220;2023-06-22T12:19:09;9.90;;;7.03;;
58468;SDS011;44257;44.804;10.220;2023-06-22T12:21:37;8.30;;;6.97;;
58468;SDS011;44257;44.804;10.220;2023-06-22T12:24:03;9.13;;;6.38;;
58468;SDS011;44257;44.804;10.220;2023-06-22T12:26:29;8.98;;;6.70;;
58468;SDS011;44257;44.804;10.220;2023-06-22T12:28:54;11.10;;;6.80;;
58468;SDS011;44257;44.804;10.220;2023-06-22T12:31:20;11.25;;;6.53;;
58468;SDS011;44257;44.804;10.220;2023-06-22T12:33:46;8.05;;;6.38;;
58468;SDS011;44257;44.804;10.220;2023-06-22T12:36:12;10.45;;;6.60;;
58468;SDS011;44257;44.804;10.220;2023-06-22T12:38:41;9.00;;;6.45;;
58468;SDS011;44257;44.804;10.220;2023-06-22T12:41:06;12.35;;;6.50;;
58468;SDS011;44257;44.804;10.220;2023-06-22T12:43:32;8.25;;;6.28;;
58468;SDS011;44257;44.804;10.220;2023-06-22T12:45:58;8.45;;;6.32;;
58468;SDS011;44257;44.804;10.220;2023-06-22T12:48:25;10.30;;;6.28;;
58468;SDS011;44257;44.804;10.220;2023-06-22T12:50:52;10.70;;;6.35;;
58468;SDS011;44257;44.804;10.220;2023-06-22T12:53:18;12.13;;;6.38;;
58468;SDS011;44257;44.804;10.220;2023-06-22T12:55:44;8.57;;;6.93;;
58468;SDS011;44257;44.804;10.220;2023-06-22T12:58:10;7.68;;;5.90;;
58468;SDS011;44257;44.804;10.220;2023-06-22T13:00:36;9.52;;;6.47;;
58468;SDS011;44257;44.804;10.220;2023-06-22T13:03:03;11.73;;;6.22;;
58468;SDS011;44257;44.804;10.220;2023-06-22T13:05:29;10.00;;;6.30;;
58468;SDS011;44257;44.804;10.220;2023-06-22T13:07:55;8.82;;;6.07;;
58468;SDS011;44257;44.804;10.220;2023-06-22T13:10:21;9.50;;;6.70;;
58468;SDS011;44257;44.804;10.220;2023-06-22T13:12:47;7.90;;;6.05;;
58468;SDS011;44257;44.804;10.220;2023-06-22T13:15:13;8.55;;;6.85;;
58468;SDS011;44257;44.804;10.220;2023-06-22T13:17:39;8.85;;;7.00;;
58468;SDS011;44257;44.804;10.220;2023-06-22T13:20:05;14.80;;;7.32;;
58468;SDS011;44257;44.804;10.220;2023-06-22T13:24:59;7.70;;;6.68;;
58468;SDS011;44257;44.804;10.220;2023-06-22T13:27:26;10.40;;;7.13;;
58468;SDS011;44257;44.804;10.220;2023-06-22T13:29:52;8.38;;;6.60;;
58468;SDS011;44257;44.804;10.220;2023-06-22T13:32:18;10.85;;;6.75;;
58468;SDS011;44257;44.804;10.220;2023-06-22T13:34:44;10.00;;;7.25;;
58468;SDS011;44257;44.804;10.220;2023-06-22T13:37:10;15.70;;;8.60;;
58468;SDS011;44257;44.804;10.220;2023-06-22T13:39:35;8.50;;;6.38;;
58468;SDS011;44257;44.804;10.220;2023-06-22T13:42:01;9.77;;;6.55;;
58468;SDS011;44257;44.804;10.220;2023-06-22T13:44:27;10.25;;;6.15;;
58468;SDS011;44257;44.804;10.220;2023-06-22T13:46:54;9.13;;;6.38;;
58468;SDS011;44257;44.804;10.220;2023-06-22T13:49:20;9.13;;;6.63;;
58468;SDS011;44257;44.804;10.220;2023-06-22T13:51:47;13.35;;;6.70;;
58468;SDS011;44257;44.804;10.220;2023-06-22T13:54:14;11.35;;;6.60;;
58468;SDS011;44257;44.804;10.220;2023-06-22T13:56:40;13.07;;;6.28;;
58468;SDS011;44257;44.804;10.220;2023-06-22T13:59:06;9.52;;;6.20;;
58468;SDS011;44257;44.804;10.220;2023-06-22T14:01:35;11.20;;;6.43;;
58468;SDS011;44257;44.804;10.220;2023-06-22T14:04:01;13.00;;;7.32;;
58468;SDS011;44257;44.804;10.220;2023-06-22T14:06:27;10.23;;;7.07;;
58468;SDS011;44257;44.804;10.220;2023-06-22T14:08:53;9.60;;;6.78;;
58468;SDS011;44257;44.804;10.220;2023-06-22T14:11:19;10.70;;;6.90;;
58468;SDS011;44257;44.804;10.220;2023-06-22T14:13:45;10.20;;;6.40;;
58468;SDS011;44257;44.804;10.220;2023-06-22T14:16:11;12.90;;;6.72;;
58468;SDS011;44257;44.804;10.220;2023-06-22T14:18:37;11.27;;;6.68;;
58468;SDS011;44257;44.804;10.220;2023-06-22T14:21:03;12.13;;;7.65;;
58468;SDS011;44257;44.804;10.220;2023-06-22T14:23:29;13.80;;;8.85;;
58468;SDS011;44257;44.804;10.220;2023-06-22T14:25:54;12.30;;;7.72;;
58468;SDS011;44257;44.804;10.220;2023-06-22T14:28:20;12.07;;;8.10;;
58468;SDS011;44257;44.804;10.220;2023-06-22T14:30:46;10.52;;;7.55;;
58468;SDS011;44257;44.804;10.220;2023-06-22T14:33:12;9.43;;;7.38;;
58468;SDS011;44257;44.804;10.220;2023-06-22T14:35:38;9.88;;;8.05;;
58468;SDS011;44257;44.804;10.220;2023-06-22T14:38:04;8.57;;;7.65;;
58468;SDS011;44257;44.804;10.220;2023-06-22T14:40:30;11.52;;;7.93;;